createdAt,value
2022-09-16T00:00:56.768Z,3.33
2022-09-16T00:01:58.457Z,2.80
2022-09-16T00:03:00.492Z,3.03
2022-09-16T00:04:02.670Z,2.47
2022-09-16T00:05:04.973Z,3.17
2022-09-16T00:06:07.139Z,3.05
2022-09-16T00:07:08.791Z,3.28
2022-09-16T00:08:11.269Z,3.20
2022-09-16T00:09:13.093Z,3.00
2022-09-16T00:10:15.017Z,2.53
2022-09-16T00:11:17.549Z,2.67
2022-09-16T00:12:19.668Z,3.05
2022-09-16T00:13:21.414Z,3.00
2022-09-16T00:14:23.102Z,2.97
2022-09-16T00:15:24.978Z,2.65
2022-09-16T00:16:28.365Z,3.00
2022-09-16T00:17:31.169Z,3.13
2022-09-16T00:18:33.201Z,2.53
2022-09-16T00:19:34.899Z,2.85
2022-09-16T00:20:36.598Z,2.67
2022-09-16T00:21:38.719Z,3.17
2022-09-16T00:22:40.747Z,2.85
2022-09-16T00:23:42.740Z,2.67
2022-09-16T00:24:44.540Z,2.88
2022-09-16T00:25:51.772Z,2.90
2022-09-16T00:26:53.413Z,3.63
2022-09-16T00:27:55.051Z,3.03
2022-09-16T00:28:56.835Z,2.50
2022-09-16T00:29:58.728Z,2.72
2022-09-16T00:31:01.915Z,3.10
2022-09-16T00:32:03.851Z,3.00
2022-09-16T00:33:05.562Z,2.97
2022-09-16T00:34:07.703Z,2.70
2022-09-16T00:35:09.829Z,2.50
2022-09-16T00:36:14.670Z,2.85
2022-09-16T00:37:16.340Z,2.90
2022-09-16T00:38:18.009Z,2.72
2022-09-16T00:39:19.709Z,2.15
2022-09-16T00:40:21.620Z,3.40
2022-09-16T00:41:33.506Z,2.65
2022-09-16T00:42:40.294Z,2.40
2022-09-16T00:44:03.921Z,2.40
2022-09-16T00:45:18.355Z,2.85
2022-09-16T00:46:25.242Z,2.25
2022-09-16T00:47:40.299Z,2.35
2022-09-16T00:48:42.077Z,2.10
2022-09-16T00:49:44.258Z,3.03
2022-09-16T00:50:55.167Z,2.22
2022-09-16T00:52:07.446Z,2.95
2022-09-16T00:53:15.623Z,2.53
2022-09-16T00:54:19.646Z,2.63
2022-09-16T00:55:28.544Z,2.10
2022-09-16T00:56:34.304Z,2.47
2022-09-16T00:57:38.008Z,2.25
2022-09-16T00:59:03.488Z,2.67
2022-09-16T01:00:08.674Z,2.50
2022-09-16T01:01:11.522Z,2.38
2022-09-16T01:02:17.326Z,2.45
2022-09-16T01:03:19.604Z,2.83
2022-09-16T01:04:31.541Z,2.45
2022-09-16T01:05:34.892Z,2.53
2022-09-16T01:06:40.056Z,2.67
2022-09-16T01:07:46.728Z,2.65
2022-09-16T01:08:50.502Z,2.50
2022-09-16T01:09:52.201Z,2.88
2022-09-16T01:10:54.388Z,2.45
2022-09-16T01:11:56.528Z,2.55
2022-09-16T01:13:03.867Z,2.72
2022-09-16T01:14:25.897Z,2.50
2022-09-16T01:16:00.487Z,2.53
2022-09-16T01:17:06.900Z,2.58
2022-09-16T01:18:22.250Z,2.83
2022-09-16T01:19:42.340Z,2.10
2022-09-16T01:20:47.354Z,2.47
2022-09-16T01:22:12.702Z,2.20
2022-09-16T01:23:17.280Z,2.78
2022-09-16T01:24:32.575Z,2.67
2022-09-16T01:26:02.433Z,2.97
2022-09-16T01:27:28.234Z,2.78
2022-09-16T01:28:51.480Z,2.53
2022-09-16T01:30:18.194Z,2.15
2022-09-16T01:31:22.797Z,2.20
2022-09-16T01:33:01.632Z,2.47
2022-09-16T01:34:17.381Z,2.00
2022-09-16T01:35:51.752Z,2.90
2022-09-16T01:37:06.664Z,2.22
2022-09-16T01:38:38.396Z,2.28
2022-09-16T01:39:57.841Z,2.60
2022-09-16T01:41:37.129Z,2.70
2022-09-16T01:42:49.072Z,1.98
2022-09-16T01:43:57.135Z,2.70
2022-09-16T01:45:07.472Z,2.50
2022-09-16T01:46:21.130Z,2.33
2022-09-16T01:47:37.102Z,2.60
2022-09-16T01:48:44.048Z,2.30
2022-09-16T01:49:58.826Z,2.60
2022-09-16T01:51:07.095Z,2.70
2022-09-16T01:52:16.781Z,2.33
2022-09-16T01:53:25.434Z,2.58
2022-09-16T01:54:45.762Z,2.80
2022-09-16T01:56:03.303Z,2.78
2022-09-16T01:57:21.512Z,2.70
2022-09-16T01:58:46.556Z,2.58
2022-09-16T01:59:58.622Z,2.15
2022-09-16T02:01:09.384Z,2.08
2022-09-16T02:02:38.289Z,2.30
2022-09-16T02:03:44.986Z,2.20
2022-09-16T02:04:54.639Z,2.50
2022-09-16T02:06:03.875Z,2.25
2022-09-16T02:07:10.477Z,2.10
2022-09-16T02:08:16.973Z,2.35
2022-09-16T02:09:24.966Z,2.40
2022-09-16T02:10:33.833Z,2.22
2022-09-16T02:11:38.873Z,2.17
2022-09-16T02:12:44.056Z,2.25
2022-09-16T02:14:08.679Z,2.00
2022-09-16T02:15:14.310Z,1.90
2022-09-16T02:16:21.073Z,1.80
2022-09-16T02:17:27.203Z,2.15
2022-09-16T02:18:35.566Z,2.08
2022-09-16T02:19:42.677Z,2.17
2022-09-16T02:20:47.608Z,2.78
2022-09-16T02:21:53.297Z,2.30
2022-09-16T02:23:10.706Z,2.47
2022-09-16T02:24:16.956Z,2.28
2022-09-16T02:25:19.802Z,2.20
2022-09-16T02:26:27.522Z,2.55
2022-09-16T02:27:31.099Z,2.38
2022-09-16T02:28:40.393Z,2.22
2022-09-16T02:29:55.685Z,2.92
2022-09-16T02:31:01.215Z,2.20
2022-09-16T02:32:06.206Z,2.33
2022-09-16T02:33:11.084Z,2.50
2022-09-16T02:34:17.131Z,2.15
2022-09-16T02:35:22.127Z,2.17
2022-09-16T02:36:26.449Z,2.17
2022-09-16T02:37:42.297Z,2.50
2022-09-16T02:38:53.639Z,2.67
2022-09-16T02:40:02.448Z,2.40
2022-09-16T02:41:04.540Z,2.25
2022-09-16T02:42:08.086Z,2.22
2022-09-16T02:43:10.183Z,2.10
2022-09-16T02:44:12.386Z,2.47
2022-09-16T02:45:14.306Z,2.38
2022-09-16T02:46:34.141Z,2.17
2022-09-16T02:48:00.661Z,2.17
2022-09-16T02:49:15.922Z,2.58
2022-09-16T02:50:27.673Z,2.08
2022-09-16T02:51:44.448Z,2.00
2022-09-16T02:53:00.393Z,2.22
2022-09-16T02:54:44.082Z,2.42
2022-09-16T02:55:57.897Z,2.30
2022-09-16T02:57:00.128Z,2.63
2022-09-16T02:58:01.778Z,2.10
2022-09-16T02:59:06.095Z,2.28
2022-09-16T03:00:08.733Z,2.28
2022-09-16T03:01:13.249Z,2.30
2022-09-16T03:02:14.951Z,2.35
2022-09-16T03:03:17.581Z,2.47
2022-09-16T03:04:21.226Z,2.50
2022-09-16T03:05:28.786Z,2.78
2022-09-16T03:06:36.101Z,2.97
2022-09-16T03:07:41.401Z,2.28
2022-09-16T03:08:44.747Z,2.53
2022-09-16T03:09:49.498Z,2.28
2022-09-16T03:10:53.184Z,2.25
2022-09-16T03:12:05.727Z,2.60
2022-09-16T03:13:18.008Z,2.42
2022-09-16T03:14:29.845Z,2.33
2022-09-16T03:15:55.111Z,2.70
2022-09-16T03:17:08.283Z,2.40
2022-09-16T03:18:22.057Z,2.33
2022-09-16T03:20:01.926Z,2.13
2022-09-16T03:21:29.699Z,3.05
2022-09-16T03:22:44.728Z,3.13
2022-09-16T03:24:13.145Z,2.45
2022-09-16T03:25:26.886Z,2.42
2022-09-16T03:26:34.767Z,2.53
2022-09-16T03:27:44.590Z,2.60
2022-09-16T03:29:04.760Z,2.50
2022-09-16T03:30:10.374Z,2.67
2022-09-16T03:31:19.968Z,3.05
2022-09-16T03:32:27.216Z,2.65
2022-09-16T03:33:38.326Z,2.28
2022-09-16T03:35:50.825Z,2.20
2022-09-16T03:37:06.388Z,2.67
2022-09-16T03:38:08.896Z,2.17
2022-09-16T03:39:11.471Z,2.13
2022-09-16T03:40:17.724Z,2.38
2022-09-16T03:41:20.211Z,2.28
2022-09-16T03:42:22.786Z,2.70
2022-09-16T03:43:24.459Z,2.38
2022-09-16T03:44:37.530Z,2.35
2022-09-16T03:45:42.950Z,2.20
2022-09-16T03:46:44.659Z,2.55
2022-09-16T03:47:48.231Z,2.70
2022-09-16T03:48:50.014Z,2.63
2022-09-16T03:49:51.730Z,2.40
2022-09-16T03:50:53.494Z,2.28
2022-09-16T03:51:55.150Z,2.42
2022-09-16T03:52:56.801Z,2.50
2022-09-16T03:53:58.513Z,1.85
2022-09-16T03:55:00.172Z,2.38
2022-09-16T03:56:02.240Z,2.60
2022-09-16T03:57:04.249Z,2.55
2022-09-16T03:58:06.110Z,2.20
2022-09-16T03:59:07.810Z,2.30
2022-09-16T04:00:10.300Z,2.50
2022-09-16T04:01:12.021Z,2.28
2022-09-16T04:02:13.761Z,2.50
2022-09-16T04:03:15.720Z,2.90
2022-09-16T04:04:17.396Z,3.53
2022-09-16T04:05:19.218Z,3.15
2022-09-16T04:06:20.906Z,1.92
2022-09-16T04:07:22.594Z,2.30
2022-09-16T04:08:24.731Z,2.60
2022-09-16T04:09:26.402Z,3.08
2022-09-16T04:10:28.080Z,2.58
2022-09-16T04:11:32.187Z,2.50
2022-09-16T04:12:34.172Z,2.80
2022-09-16T04:13:36.583Z,2.47
2022-09-16T04:14:38.252Z,3.22
2022-09-16T04:15:39.939Z,3.13
2022-09-16T04:16:44.959Z,2.50
2022-09-16T04:17:47.148Z,2.80
2022-09-16T04:18:49.349Z,2.72
2022-09-16T04:19:53.000Z,3.03
2022-09-16T04:20:58.961Z,2.60
2022-09-16T04:22:01.274Z,3.15
2022-09-16T04:23:03.093Z,2.50
2022-09-16T04:24:07.473Z,2.97
2022-09-16T04:25:11.232Z,3.50
2022-09-16T04:26:12.887Z,2.75
2022-09-16T04:27:14.591Z,2.72
2022-09-16T04:28:16.446Z,2.53
2022-09-16T04:29:18.088Z,2.67
2022-09-16T04:30:20.639Z,3.42
2022-09-16T04:31:22.622Z,3.50
2022-09-16T04:32:25.125Z,3.45
2022-09-16T04:33:29.696Z,2.35
2022-09-16T04:34:32.633Z,3.13
2022-09-16T04:35:34.315Z,3.20
2022-09-16T04:36:36.249Z,2.38
2022-09-16T04:37:37.891Z,2.00
2022-09-16T04:38:41.309Z,3.08
2022-09-16T04:39:43.310Z,3.47
2022-09-16T04:40:45.288Z,2.78
2022-09-16T04:41:47.005Z,2.90
2022-09-16T04:42:52.006Z,2.55
2022-09-16T04:43:58.326Z,3.25
2022-09-16T04:45:00.683Z,3.28
2022-09-16T04:46:02.858Z,3.00
2022-09-16T04:47:04.705Z,3.95
2022-09-16T04:48:06.519Z,3.50
2022-09-16T04:49:08.224Z,3.50
2022-09-16T04:50:11.274Z,3.67
2022-09-16T04:51:13.444Z,3.65
2022-09-16T04:52:15.573Z,3.75
2022-09-16T04:53:17.263Z,4.28
2022-09-16T04:54:18.908Z,5.18
2022-09-16T04:55:24.140Z,4.18
2022-09-16T04:56:28.539Z,4.75
2022-09-16T04:57:32.490Z,3.95
2022-09-16T04:58:34.782Z,4.20
2022-09-16T04:59:36.446Z,4.20
2022-09-16T05:00:38.195Z,4.38
2022-09-16T05:01:40.835Z,3.70
2022-09-16T05:02:45.712Z,4.07
2022-09-16T05:03:52.511Z,3.92
2022-09-16T05:04:54.794Z,3.97
2022-09-16T05:06:05.341Z,4.10
2022-09-16T05:07:07.117Z,4.05
2022-09-16T05:08:08.745Z,3.78
2022-09-16T05:09:12.354Z,4.35
2022-09-16T05:10:14.346Z,4.00
2022-09-16T05:11:24.839Z,3.90
2022-09-16T05:12:26.500Z,5.78
2022-09-16T05:13:28.163Z,4.63
2022-09-16T05:14:29.902Z,3.75
2022-09-16T05:15:31.590Z,3.92
2022-09-16T05:16:33.544Z,3.05
2022-09-16T05:17:50.297Z,3.75
2022-09-16T05:18:55.733Z,3.30
2022-09-16T05:19:58.226Z,3.35
2022-09-16T05:21:01.756Z,3.05
2022-09-16T05:22:07.249Z,3.45
2022-09-16T05:23:09.195Z,2.90
2022-09-16T05:24:12.969Z,3.50
2022-09-16T05:25:14.979Z,3.35
2022-09-16T05:26:22.622Z,3.22
2022-09-16T05:27:24.302Z,3.15
2022-09-16T05:28:26.084Z,3.22
2022-09-16T05:29:27.846Z,3.22
2022-09-16T05:30:29.543Z,3.80
2022-09-16T05:31:33.463Z,3.33
2022-09-16T05:32:35.148Z,3.47
2022-09-16T05:33:37.107Z,3.63
2022-09-16T05:34:38.764Z,3.17
2022-09-16T05:35:41.963Z,3.03
2022-09-16T05:36:47.593Z,3.20
2022-09-16T05:37:50.106Z,2.95
2022-09-16T05:39:18.247Z,3.30
2022-09-16T05:40:13.937Z,3.60
2022-09-16T05:41:16.014Z,3.60
2022-09-16T05:42:17.679Z,3.50
2022-09-16T05:43:19.345Z,3.10
2022-09-16T05:44:21.067Z,3.65
2022-09-16T05:45:26.675Z,3.05
2022-09-16T05:46:30.668Z,3.63
2022-09-16T05:47:32.718Z,3.60
2022-09-16T05:48:35.379Z,2.92
2022-09-16T05:49:37.268Z,3.83
2022-09-16T05:50:38.922Z,3.30
2022-09-16T05:51:43.974Z,2.97
2022-09-16T05:52:45.922Z,3.25
2022-09-16T05:53:49.023Z,3.30
2022-09-16T05:54:51.015Z,3.03
2022-09-16T05:56:05.931Z,3.38
2022-09-16T05:57:07.829Z,3.13
2022-09-16T05:58:09.511Z,3.83
2022-09-16T05:59:12.555Z,3.53
2022-09-16T06:00:14.856Z,3.65
2022-09-16T06:01:19.690Z,3.53
2022-09-16T06:02:21.538Z,4.13
2022-09-16T06:03:23.221Z,3.70
2022-09-16T06:04:24.944Z,3.72
2022-09-16T06:05:26.599Z,4.00
2022-09-16T06:06:43.032Z,3.75
2022-09-16T06:07:44.764Z,3.38
2022-09-16T06:08:46.563Z,3.67
2022-09-16T06:09:48.865Z,3.72
2022-09-16T06:10:50.688Z,4.03
2022-09-16T06:12:00.785Z,4.05
2022-09-16T06:13:03.626Z,4.07
2022-09-16T06:14:06.277Z,3.90
2022-09-16T06:15:08.612Z,3.35
2022-09-16T06:16:10.877Z,4.22
2022-09-16T06:17:12.794Z,4.30
2022-09-16T06:18:16.440Z,4.03
2022-09-16T06:19:18.647Z,4.75
2022-09-16T06:20:20.725Z,3.97
2022-09-16T06:21:23.512Z,5.15
2022-09-16T06:22:25.186Z,5.13
2022-09-16T06:23:27.339Z,4.70
2022-09-16T06:24:29.112Z,4.65
2022-09-16T06:25:30.779Z,4.50
2022-09-16T06:26:32.437Z,4.38
2022-09-16T06:27:34.398Z,4.10
2022-09-16T06:28:36.530Z,3.97
2022-09-16T06:29:38.209Z,3.45
2022-09-16T06:30:40.393Z,4.07
2022-09-16T06:31:43.007Z,3.35
2022-09-16T06:32:44.650Z,4.05
2022-09-16T06:33:46.821Z,3.75
2022-09-16T06:34:48.561Z,3.83
2022-09-16T06:35:51.631Z,4.18
2022-09-16T06:36:53.347Z,4.25
2022-09-16T06:37:55.417Z,5.13
2022-09-16T06:38:57.110Z,3.83
2022-09-16T06:39:58.794Z,4.50
2022-09-16T06:41:06.292Z,3.70
2022-09-16T06:42:09.110Z,5.03
2022-09-16T06:43:10.803Z,3.65
2022-09-16T06:44:12.493Z,4.18
2022-09-16T06:45:14.510Z,3.65
2022-09-16T06:46:22.940Z,3.80
2022-09-16T06:47:24.936Z,3.88
2022-09-16T06:48:28.152Z,4.40
2022-09-16T06:49:29.818Z,4.60
2022-09-16T06:50:31.916Z,4.38
2022-09-16T06:51:34.724Z,4.00
2022-09-16T06:52:36.919Z,4.03
2022-09-16T06:53:39.448Z,3.80
2022-09-16T06:54:41.421Z,4.43
2022-09-16T06:55:43.090Z,4.50
2022-09-16T06:56:44.827Z,4.22
2022-09-16T06:57:46.498Z,4.15
2022-09-16T06:58:50.493Z,4.20
2022-09-16T06:59:52.871Z,3.83
2022-09-16T07:00:55.201Z,4.53
2022-09-16T07:01:57.368Z,3.90
2022-09-16T07:02:59.311Z,4.35
2022-09-16T07:04:06.911Z,4.07
2022-09-16T07:05:09.963Z,3.83
2022-09-16T07:06:13.280Z,4.20
2022-09-16T07:07:15.309Z,4.13
2022-09-16T07:08:17.204Z,4.47
2022-09-16T07:09:19.112Z,4.03
2022-09-16T07:10:20.762Z,4.50
2022-09-16T07:11:24.151Z,4.15
2022-09-16T07:12:25.897Z,3.70
2022-09-16T07:13:27.964Z,3.92
2022-09-16T07:14:32.625Z,4.65
2022-09-16T07:15:39.280Z,4.00
2022-09-16T07:16:52.822Z,3.90
2022-09-16T07:17:55.520Z,4.30
2022-09-16T07:19:01.140Z,4.05
2022-09-16T07:20:03.383Z,3.83
2022-09-16T07:21:16.732Z,3.88
2022-09-16T07:22:18.444Z,3.58
2022-09-16T07:23:20.113Z,3.83
2022-09-16T07:24:21.898Z,3.95
2022-09-16T07:25:23.791Z,3.80
2022-09-16T07:26:28.753Z,3.90
2022-09-16T07:27:31.382Z,3.65
2022-09-16T07:28:34.133Z,3.38
2022-09-16T07:29:35.838Z,3.83
2022-09-16T07:30:37.557Z,4.13
2022-09-16T07:31:39.841Z,4.20
2022-09-16T07:32:41.541Z,4.03
2022-09-16T07:33:47.952Z,4.07
2022-09-16T07:34:49.609Z,4.25
2022-09-16T07:35:51.370Z,3.72
2022-09-16T07:36:53.156Z,4.28
2022-09-16T07:37:54.993Z,4.30
2022-09-16T07:38:58.697Z,3.38
2022-09-16T07:40:00.426Z,3.70
2022-09-16T07:41:26.309Z,4.45
2022-09-16T07:42:29.645Z,4.20
2022-09-16T07:43:31.558Z,3.97
2022-09-16T07:44:33.222Z,3.90
2022-09-16T07:45:34.935Z,4.03
2022-09-16T07:46:37.356Z,4.20
2022-09-16T07:47:39.058Z,4.30
2022-09-16T07:48:41.162Z,4.15
2022-09-16T07:49:42.908Z,3.97
2022-09-16T07:50:44.645Z,4.93
2022-09-16T07:51:46.383Z,5.20
2022-09-16T07:52:48.106Z,4.85
2022-09-16T07:53:54.972Z,5.05
2022-09-16T07:54:56.702Z,5.13
2022-09-16T07:56:07.242Z,6.25
2022-09-16T07:57:09.367Z,4.53
2022-09-16T07:58:11.036Z,4.53
2022-09-16T07:59:18.485Z,4.70
2022-09-16T08:00:21.529Z,5.50
2022-09-16T08:01:24.596Z,5.43
2022-09-16T08:02:26.704Z,5.15
2022-09-16T08:03:29.212Z,5.32
2022-09-16T08:04:31.198Z,5.05
2022-09-16T08:05:32.862Z,4.95
2022-09-16T08:06:38.609Z,4.95
2022-09-16T08:07:40.284Z,5.20
2022-09-16T08:08:42.330Z,5.15
2022-09-16T08:09:49.985Z,5.22
2022-09-16T08:10:55.328Z,5.90
2022-09-16T08:11:57.877Z,5.38
2022-09-16T08:12:59.763Z,4.97
2022-09-16T08:14:01.689Z,5.13
2022-09-16T08:15:03.712Z,5.93
2022-09-16T08:16:09.227Z,6.20
2022-09-16T08:17:11.415Z,5.80
2022-09-16T08:18:13.323Z,5.85
2022-09-16T08:19:15.358Z,5.35
2022-09-16T08:20:17.522Z,5.10
2022-09-16T08:21:22.220Z,5.13
2022-09-16T08:22:23.991Z,5.35
2022-09-16T08:23:25.799Z,6.00
2022-09-16T08:24:27.426Z,5.72
2022-09-16T08:25:29.385Z,6.72
2022-09-16T08:26:31.068Z,6.03
2022-09-16T08:27:38.221Z,6.90
2022-09-16T08:29:07.480Z,6.22
2022-09-16T08:30:05.233Z,6.22
2022-09-16T08:31:06.934Z,6.50
2022-09-16T08:32:08.665Z,6.20
2022-09-16T08:33:11.089Z,5.60
2022-09-16T08:34:12.802Z,6.80
2022-09-16T08:35:14.809Z,6.47
2022-09-16T08:36:24.793Z,6.18
2022-09-16T08:37:26.432Z,5.65
2022-09-16T08:38:29.126Z,4.85
2022-09-16T08:39:31.158Z,5.70
2022-09-16T08:40:36.439Z,5.30
2022-09-16T08:42:15.141Z,5.85
2022-09-16T08:43:29.060Z,5.50
2022-09-16T08:44:57.802Z,5.00
2022-09-16T08:46:20.918Z,5.32
2022-09-16T08:47:46.079Z,4.68
2022-09-16T08:49:20.466Z,4.40
2022-09-16T08:50:29.352Z,4.72
2022-09-16T08:51:32.651Z,4.28
2022-09-16T08:52:38.297Z,4.78
2022-09-16T08:53:46.087Z,4.38
2022-09-16T08:54:54.824Z,3.70
2022-09-16T08:55:56.579Z,5.20
2022-09-16T08:57:02.589Z,4.80
2022-09-16T08:58:07.411Z,4.43
2022-09-16T08:59:14.730Z,4.85
2022-09-16T09:00:19.008Z,4.80
2022-09-16T09:01:24.920Z,4.82
2022-09-16T09:02:59.449Z,5.72
2022-09-16T09:04:02.613Z,4.38
2022-09-16T09:05:15.445Z,4.63
2022-09-16T09:06:31.536Z,5.00
2022-09-16T09:07:46.519Z,5.85
2022-09-16T09:08:56.735Z,6.15
2022-09-16T09:10:20.777Z,5.82
2022-09-16T09:11:35.981Z,6.65
2022-09-16T09:12:44.727Z,5.95
2022-09-16T09:13:55.902Z,6.22
2022-09-16T09:15:12.588Z,7.35
2022-09-16T09:16:23.407Z,4.90
2022-09-16T09:17:50.676Z,4.72
2022-09-16T09:19:32.949Z,5.07
2022-09-16T09:20:46.071Z,5.47
2022-09-16T09:22:14.868Z,4.60
2022-09-16T09:23:16.545Z,4.70
2022-09-16T09:24:48.531Z,4.38
2022-09-16T09:25:58.268Z,4.78
2022-09-16T09:27:26.542Z,4.37
2022-09-16T09:28:56.137Z,4.85
2022-09-16T09:30:32.185Z,4.45
2022-09-16T09:31:46.321Z,4.10
2022-09-16T09:33:27.605Z,4.30
2022-09-16T09:34:37.137Z,4.38
2022-09-16T09:35:53.613Z,4.75
2022-09-16T09:37:01.475Z,3.78
2022-09-16T09:38:18.147Z,4.53
2022-09-16T09:39:20.005Z,3.70
2022-09-16T09:40:33.011Z,3.80
2022-09-16T09:41:41.168Z,4.10
2022-09-16T09:43:07.830Z,4.63
2022-09-16T09:44:33.905Z,3.72
2022-09-16T09:45:44.418Z,3.80
2022-09-16T09:46:52.623Z,4.72
2022-09-16T09:48:20.518Z,4.13
2022-09-16T09:49:34.568Z,3.20
2022-09-16T09:50:47.722Z,3.58
2022-09-16T09:51:55.767Z,4.13
2022-09-16T09:52:57.488Z,3.40
2022-09-16T09:54:22.069Z,3.60
2022-09-16T09:55:26.275Z,3.40
2022-09-16T09:56:35.162Z,3.45
2022-09-16T09:57:42.122Z,3.67
2022-09-16T09:58:53.701Z,4.00
2022-09-16T10:00:01.787Z,3.67
2022-09-16T10:01:04.390Z,3.72
2022-09-16T10:02:17.572Z,3.55
2022-09-16T10:03:19.734Z,3.67
2022-09-16T10:04:21.562Z,3.55
2022-09-16T10:05:29.369Z,3.63
2022-09-16T10:06:34.302Z,3.65
2022-09-16T10:07:38.408Z,3.70
2022-09-16T10:08:47.948Z,3.45
2022-09-16T10:10:03.714Z,3.55
2022-09-16T10:11:18.646Z,3.50
2022-09-16T10:12:29.267Z,4.35
2022-09-16T10:13:31.436Z,3.65
2022-09-16T10:14:36.518Z,3.90
2022-09-16T10:15:38.312Z,3.78
2022-09-16T10:16:48.157Z,3.80
2022-09-16T10:17:54.543Z,3.60
2022-09-16T10:19:09.145Z,3.58
2022-09-16T10:20:31.046Z,3.28
2022-09-16T10:21:48.666Z,3.67
2022-09-16T10:23:07.179Z,3.70
2022-09-16T10:24:35.170Z,3.35
2022-09-16T10:25:37.325Z,3.58
2022-09-16T10:26:40.917Z,4.03
2022-09-16T10:27:42.904Z,3.65
2022-09-16T10:28:58.336Z,3.50
2022-09-16T10:30:19.991Z,3.95
2022-09-16T10:31:24.915Z,3.17
2022-09-16T10:32:26.842Z,3.60
2022-09-16T10:33:32.368Z,3.50
2022-09-16T10:34:39.359Z,4.47
2022-09-16T10:35:44.202Z,3.63
2022-09-16T10:36:46.866Z,4.30
2022-09-16T10:38:16.132Z,4.38
2022-09-16T10:39:28.950Z,4.03
2022-09-16T10:40:31.862Z,3.75
2022-09-16T10:41:35.495Z,3.90
2022-09-16T10:42:37.552Z,4.20
2022-09-16T10:43:46.497Z,3.97
2022-09-16T10:44:51.731Z,4.25
2022-09-16T10:45:55.290Z,3.53
2022-09-16T10:47:05.741Z,3.35
2022-09-16T10:48:13.334Z,3.58
2022-09-16T10:49:20.596Z,4.22
2022-09-16T10:50:23.288Z,4.40
2022-09-16T10:51:30.620Z,4.45
2022-09-16T10:52:42.595Z,4.63
2022-09-16T10:53:51.843Z,4.43
2022-09-16T10:54:54.695Z,4.65
2022-09-16T10:55:59.034Z,4.80
2022-09-16T10:57:01.005Z,5.03
2022-09-16T10:58:19.032Z,4.68
2022-09-16T10:59:21.174Z,4.03
2022-09-16T11:00:25.927Z,4.13
2022-09-16T11:01:47.691Z,3.22
2022-09-16T11:02:56.074Z,3.22
2022-09-16T11:04:16.129Z,3.60
2022-09-16T11:05:29.988Z,3.58
2022-09-16T11:06:49.731Z,3.78
2022-09-16T11:08:03.434Z,3.75
2022-09-16T11:09:56.612Z,3.10
2022-09-16T11:11:16.257Z,2.97
2022-09-16T11:12:39.979Z,3.03
2022-09-16T11:13:59.519Z,3.13
2022-09-16T11:15:33.561Z,3.03
2022-09-16T11:17:14.409Z,3.28
2022-09-16T11:18:34.704Z,3.20
2022-09-16T11:20:08.587Z,3.40
2022-09-16T11:21:29.408Z,3.10
2022-09-16T11:23:38.002Z,3.10
2022-09-16T11:24:43.635Z,3.08
2022-09-16T11:26:00.589Z,3.00
2022-09-16T11:27:30.084Z,3.30
2022-09-16T11:28:50.539Z,3.13
2022-09-16T11:30:10.799Z,2.97
2022-09-16T11:31:30.873Z,3.45
2022-09-16T11:32:51.317Z,2.92
2022-09-16T11:34:05.932Z,2.92
2022-09-16T11:35:32.689Z,3.60
2022-09-16T11:36:46.228Z,3.50
2022-09-16T11:38:14.041Z,3.53
2022-09-16T11:39:36.998Z,3.75
2022-09-16T11:41:25.455Z,3.22
2022-09-16T11:42:34.046Z,3.40
2022-09-16T11:44:00.426Z,3.28
2022-09-16T11:45:36.214Z,3.55
2022-09-16T11:47:02.434Z,4.07
2022-09-16T11:48:16.472Z,3.80
2022-09-16T11:49:33.857Z,3.88
2022-09-16T11:50:46.677Z,3.38
2022-09-16T11:52:01.284Z,4.30
2022-09-16T11:53:05.427Z,3.78
2022-09-16T11:54:32.407Z,4.10
2022-09-16T11:55:58.414Z,3.58
2022-09-16T11:57:13.252Z,3.53
2022-09-16T11:58:58.177Z,4.28
2022-09-16T12:00:11.010Z,4.93
2022-09-16T12:01:46.421Z,5.28
2022-09-16T12:03:09.888Z,4.97
2022-09-16T12:05:03.297Z,5.13
2022-09-16T12:06:11.426Z,5.35
2022-09-16T12:07:19.949Z,5.82
2022-09-16T12:08:53.866Z,5.50
2022-09-16T12:10:14.578Z,5.15
2022-09-16T12:11:24.971Z,5.13
2022-09-16T12:12:32.836Z,4.72
2022-09-16T12:13:37.193Z,5.18
2022-09-16T12:14:45.973Z,5.15
2022-09-16T12:16:13.688Z,4.75
2022-09-16T12:17:25.868Z,4.82
2022-09-16T12:18:37.842Z,5.57
2022-09-16T12:19:45.591Z,6.00
2022-09-16T12:20:58.036Z,5.20
2022-09-16T12:22:23.502Z,5.63
2022-09-16T12:23:30.291Z,6.20
2022-09-16T12:25:03.230Z,4.72
2022-09-16T12:26:17.480Z,4.88
2022-09-16T12:27:38.601Z,5.00
2022-09-16T12:28:51.912Z,4.13
2022-09-16T12:30:16.839Z,4.05
2022-09-16T12:31:25.192Z,3.97
2022-09-16T12:32:38.002Z,3.97
2022-09-16T12:33:53.387Z,3.83
2022-09-16T12:35:06.407Z,3.63
2022-09-16T12:36:21.775Z,3.55
2022-09-16T12:37:40.367Z,3.97
2022-09-16T12:38:42.442Z,4.30
2022-09-16T12:39:45.459Z,3.65
2022-09-16T12:41:21.544Z,4.13
2022-09-16T12:42:41.061Z,3.60
2022-09-16T12:44:30.902Z,4.32
2022-09-16T12:46:03.080Z,4.50
2022-09-16T12:47:27.801Z,3.85
2022-09-16T12:49:03.140Z,3.53
2022-09-16T12:50:08.015Z,3.58
2022-09-16T12:51:50.235Z,3.60
2022-09-16T12:53:17.071Z,2.78
2022-09-16T12:55:07.856Z,2.63
2022-09-16T12:57:54.591Z,3.10
2022-09-16T12:59:16.840Z,3.08
2022-09-16T13:00:27.477Z,2.50
2022-09-16T13:01:47.553Z,2.97
2022-09-16T13:02:54.956Z,3.10
2022-09-16T13:04:03.854Z,2.70
2022-09-16T13:05:45.384Z,2.75
2022-09-16T13:06:53.006Z,2.72
2022-09-16T13:08:00.913Z,3.35
2022-09-16T13:09:31.200Z,2.72
2022-09-16T13:10:55.763Z,3.33
2022-09-16T13:13:37.745Z,3.05
2022-09-16T13:14:54.047Z,2.75
2022-09-16T13:15:59.504Z,2.65
2022-09-16T13:17:05.469Z,2.78
2022-09-16T13:18:16.894Z,2.92
2022-09-16T13:19:45.525Z,2.50
2022-09-16T13:20:56.687Z,2.40
2022-09-16T13:22:05.587Z,2.65
2022-09-16T13:23:16.293Z,2.42
2022-09-16T13:24:27.745Z,2.53
2022-09-16T13:25:48.076Z,2.15
2022-09-16T13:26:50.318Z,2.47
2022-09-16T13:28:19.655Z,2.15
2022-09-16T13:29:44.223Z,1.98
2022-09-16T13:30:46.139Z,2.17
2022-09-16T13:31:48.976Z,2.83
2022-09-16T13:32:50.767Z,2.58
2022-09-16T13:33:58.194Z,2.85
2022-09-16T13:35:23.498Z,2.40
2022-09-16T13:36:28.673Z,2.30
2022-09-16T13:37:30.518Z,2.53
2022-09-16T13:38:38.889Z,2.30
2022-09-16T13:39:40.649Z,2.30
2022-09-16T13:40:57.194Z,2.45
2022-09-16T13:42:11.378Z,2.20
2022-09-16T13:43:14.540Z,2.67
2022-09-16T13:44:41.376Z,2.10
2022-09-16T13:45:46.685Z,2.53
2022-09-16T13:46:48.605Z,1.95
2022-09-16T13:47:51.332Z,1.92
2022-09-16T13:49:11.405Z,3.13
2022-09-16T13:50:15.555Z,2.22
2022-09-16T13:51:20.460Z,2.58
2022-09-16T13:52:28.969Z,2.33
2022-09-16T13:53:34.276Z,2.30
2022-09-16T13:55:06.337Z,2.22
2022-09-16T13:56:09.187Z,2.13
2022-09-16T13:57:38.474Z,2.58
2022-09-16T13:59:01.166Z,2.10
2022-09-16T14:00:12.160Z,2.40
2022-09-16T14:01:17.915Z,1.80
2022-09-16T14:02:27.683Z,2.53
2022-09-16T14:03:50.784Z,2.47
2022-09-16T14:05:13.426Z,2.75
2022-09-16T14:06:56.476Z,3.38
2022-09-16T14:08:34.801Z,3.58
2022-09-16T14:09:51.476Z,2.50
2022-09-16T14:11:05.724Z,3.35
2022-09-16T14:12:13.677Z,2.65
2022-09-16T14:13:24.063Z,2.50
2022-09-16T14:14:46.400Z,2.60
2022-09-16T14:15:59.809Z,2.47
2022-09-16T14:17:14.956Z,2.20
2022-09-16T14:18:21.122Z,2.50
2022-09-16T14:19:28.967Z,2.70
2022-09-16T14:20:31.782Z,2.25
2022-09-16T14:21:34.864Z,3.00
2022-09-16T14:22:36.519Z,2.40
2022-09-16T14:23:38.446Z,2.75
2022-09-16T14:24:42.121Z,2.72
2022-09-16T14:25:44.031Z,3.03
2022-09-16T14:26:53.229Z,2.92
2022-09-16T14:28:27.060Z,2.25
2022-09-16T14:29:28.904Z,2.30
2022-09-16T14:30:30.584Z,2.28
2022-09-16T14:31:33.996Z,2.60
2022-09-16T14:32:37.895Z,2.63
2022-09-16T14:33:56.381Z,2.45
2022-09-16T14:35:02.875Z,3.20
2022-09-16T14:36:17.436Z,3.15
2022-09-16T14:37:21.614Z,2.50
2022-09-16T14:38:44.901Z,2.53
2022-09-16T14:39:53.170Z,2.95
2022-09-16T14:40:56.938Z,2.55
2022-09-16T14:42:07.403Z,2.70
2022-09-16T14:43:15.589Z,2.83
2022-09-16T14:44:20.421Z,2.13
2022-09-16T14:45:22.659Z,2.10
2022-09-16T14:46:24.465Z,2.20
2022-09-16T14:47:50.654Z,1.88
2022-09-16T14:48:53.743Z,1.80
2022-09-16T14:50:03.586Z,2.10
2022-09-16T14:51:20.969Z,2.13
2022-09-16T14:52:26.119Z,1.90
2022-09-16T14:53:35.327Z,1.90
2022-09-16T14:54:44.554Z,1.90
2022-09-16T14:55:49.572Z,1.80
2022-09-16T14:57:02.270Z,1.92
2022-09-16T14:58:04.380Z,1.80
2022-09-16T14:59:10.324Z,1.83
2022-09-16T15:00:17.512Z,1.92
2022-09-16T15:01:28.407Z,1.90
2022-09-16T15:03:51.461Z,1.50
2022-09-16T15:05:03.099Z,1.38
2022-09-16T15:06:10.200Z,1.63
2022-09-16T15:07:20.444Z,1.50
2022-09-16T15:08:25.014Z,1.88
2022-09-16T15:09:39.885Z,1.40
2022-09-16T15:10:52.334Z,1.98
2022-09-16T15:11:59.152Z,1.67
2022-09-16T15:13:10.924Z,1.77
2022-09-16T15:14:12.882Z,1.90
2022-09-16T15:15:27.394Z,1.50
2022-09-16T15:16:29.204Z,1.90
2022-09-16T15:17:31.289Z,1.83
2022-09-16T15:18:38.861Z,2.28
2022-09-16T15:19:41.974Z,2.13
2022-09-16T15:20:55.480Z,1.75
2022-09-16T15:21:57.852Z,1.83
2022-09-16T15:23:01.090Z,2.00
2022-09-16T15:24:06.119Z,1.90
2022-09-16T15:25:21.086Z,1.90
2022-09-16T15:26:44.870Z,2.58
2022-09-16T15:27:46.655Z,1.98